Great — TCYV6 — position and weather

sailwx.info

Track history (hours):
 
Tides and Currents Weather Stations Pressure Air Temp Water Temp Dewpoint Dewpoint Depression Visibility Wind Speed Wind Dir Waves Ship Positions

Great

Last reported at 2016-May-18 21:18 UTC. Time now 2016-May-31 00:12 UTC.
Position N 44°31' E 012°27'.
Warning: this ship's position is 12 days out of date.

Length 186 m; draft 10.4 m.

Type: Cargo ship. MMSI: 271042241.

Date/timePositionNaut miles runAvg speedWind from/ knotsBaromVisibWave heightAir tempDewpointWater temp
2016-May-18 21:18N 44°31' E 012°27'0 0.1
2016-May-18 20:32N 44°31' E 012°26'0 0.0
2016-May-18 06:30N 44°31' E 012°26'0 0.0
2016-May-18 05:33N 44°31' E 012°26'0 0.1
2016-May-18 04:29N 44°30' E 012°27'0 0.0
2016-May-18 03:33N 44°31' E 012°27'6 6.5
2016-May-18 02:33N 44°28' E 012°35'9 9.5
2016-May-18 01:33N 44°25' E 012°47'10 9.4
2016-May-18 00:32N 44°22' E 013°00'  
2016-May-15 03:16N 36°28' E 024°02'810.6
2016-May-15 02:33N 36°28' E 024°12'  
Track history (hours):
 
Tides and Currents Weather Stations Pressure Air Temp Water Temp Dewpoint Dewpoint Depression Visibility Wind Speed Wind Dir Waves Ship Positions

Great

Last reported at 2016-May-18 21:18 UTC. Time now 2016-May-31 00:12 UTC.
Position N 44°31' E 012°27'.
Warning: this ship's position is 12 days out of date.

Length 186 m; draft 10.4 m.

Type: Cargo ship. MMSI: 271042241.

Date/timePositionNaut miles runAvg speedWind from/ knotsBaromVisibWave heightAir tempDewpointWater temp
2016-May-18 21:18N 44°31' E 012°27'0 0.1
2016-May-18 20:32N 44°31' E 012°26'0 0.0
2016-May-18 06:30N 44°31' E 012°26'0 0.0
2016-May-18 05:33N 44°31' E 012°26'0 0.1
2016-May-18 04:29N 44°30' E 012°27'0 0.0
2016-May-18 03:33N 44°31' E 012°27'6 6.5
2016-May-18 02:33N 44°28' E 012°35'9 9.5
2016-May-18 01:33N 44°25' E 012°47'10 9.4
2016-May-18 00:32N 44°22' E 013°00'  
2016-May-15 03:16N 36°28' E 024°02'810.6
2016-May-15 02:33N 36°28' E 024°12'  

Dump ship's entire track history